PH-0129 weather

Petron Megaplaza Heliport
Makati (Manila), Philippines

Public forecast

Using degrees Celsius for public forecast. Weather courtesy of forecast.io.

METAR (pilot weather report)

Closest report is Ninoy Aquino International Airport, 3.2 nm (5.9 km) S. Retrieved 2019/07/22 17:00 UTC (20 minutes ago):

RPLL 221700Z 18004KT 7000 -RA SCT020 OVC080 27/27 Q1008 NOSIG RMK A2977

TAF (pilot weather forecast)

Closest forecast is Ninoy Aquino International Airport, 3.2 nm (5.9 km) S. Retrieved 2019/07/22 12:00 UTC (5 hours ago):

TAF RPLL 221100Z 2212/2318 26007KT 9999 FEW025 SCT100 TX33/2306Z TN27/2221Z TEMPO 2212/2218 34008KT 7000 SHRA SCT022CB OVC090 TEMPO 2218/2224 34006KT VCSH SCT023 BKN090